sensor_id;sensor_type;location;lat;lon;timestamp;pressure;altitude;pressure_sealevel;temperature;humidity
70815;BME280;58428;49.478;10.986;2023-04-03T00:02:27;99284.19;;;4.72;100.00
70815;BME280;58428;49.478;10.986;2023-04-03T00:04:52;99283.91;;;4.78;100.00
70815;BME280;58428;49.478;10.986;2023-04-03T00:07:18;99285.53;;;4.74;100.00
70815;BME280;58428;49.478;10.986;2023-04-03T00:09:44;99283.69;;;4.75;100.00
70815;BME280;58428;49.478;10.986;2023-04-03T00:12:12;99274.56;;;4.71;100.00
70815;BME280;58428;49.478;10.986;2023-04-03T00:14:40;99282.31;;;4.62;100.00
70815;BME280;58428;49.478;10.986;2023-04-03T00:17:06;99275.88;;;4.68;100.00
70815;BME280;58428;49.478;10.986;2023-04-03T00:19:33;99283.13;;;4.63;100.00
70815;BME280;58428;49.478;10.986;2023-04-03T00:25:30;99278.03;;;4.61;100.00
70815;BME280;58428;49.478;10.986;2023-04-03T00:27:56;99280.69;;;4.56;100.00
70815;BME280;58428;49.478;10.986;2023-04-03T00:30:22;99277.25;;;4.61;100.00
70815;BME280;58428;49.478;10.986;2023-04-03T00:36:26;99280.47;;;4.63;100.00
70815;BME280;58428;49.478;10.986;2023-04-03T00:38:51;99283.38;;;4.66;100.00
70815;BME280;58428;49.478;10.986;2023-04-03T00:41:20;99287.94;;;4.66;100.00
70815;BME280;58428;49.478;10.986;2023-04-03T00:43:49;99286.06;;;4.61;100.00
70815;BME280;58428;49.478;10.986;2023-04-03T00:46:15;99280.19;;;4.69;100.00
70815;BME280;58428;49.478;10.986;2023-04-03T00:48:44;99281.53;;;4.72;100.00
70815;BME280;58428;49.478;10.986;2023-04-03T00:51:14;99275.63;;;4.65;100.00
70815;BME280;58428;49.478;10.986;2023-04-03T00:53:46;99280.69;;;4.66;100.00
70815;BME280;58428;49.478;10.986;2023-04-03T00:56:18;99286.06;;;4.61;100.00
70815;BME280;58428;49.478;10.986;2023-04-03T00:58:49;99285.28;;;4.61;100.00
70815;BME280;58428;49.478;10.986;2023-04-03T01:01:24;99283.91;;;4.68;100.00
70815;BME280;58428;49.478;10.986;2023-04-03T01:03:50;99291.69;;;4.60;100.00
70815;BME280;58428;49.478;10.986;2023-04-03T01:06:17;99279.38;;;4.59;100.00
70815;BME280;58428;49.478;10.986;2023-04-03T01:08:54;99274.81;;;4.59;100.00
70815;BME280;58428;49.478;10.986;2023-04-03T01:11:20;99281.78;;;4.65;100.00
70815;BME280;58428;49.478;10.986;2023-04-03T01:13:48;99282.59;;;4.66;100.00
70815;BME280;58428;49.478;10.986;2023-04-03T01:17:02;99277.25;;;4.71;100.00
70815;BME280;58428;49.478;10.986;2023-04-03T01:19:36;99285.28;;;4.66;100.00
70815;BME280;58428;49.478;10.986;2023-04-03T01:22:15;99282.84;;;4.59;100.00
70815;BME280;58428;49.478;10.986;2023-04-03T01:24:44;99282.56;;;4.51;100.00
70815;BME280;58428;49.478;10.986;2023-04-03T01:27:11;99284.47;;;4.55;100.00
70815;BME280;58428;49.478;10.986;2023-04-03T01:29:37;99280.97;;;4.50;100.00
70815;BME280;58428;49.478;10.986;2023-04-03T01:32:03;99279.38;;;4.54;100.00
70815;BME280;58428;49.478;10.986;2023-04-03T01:34:29;99282.59;;;4.56;100.00
70815;BME280;58428;49.478;10.986;2023-04-03T01:36:55;99286.59;;;4.53;100.00
70815;BME280;58428;49.478;10.986;2023-04-03T01:39:22;99281.22;;;4.58;100.00
70815;BME280;58428;49.478;10.986;2023-04-03T01:41:50;99283.66;;;4.50;100.00
70815;BME280;58428;49.478;10.986;2023-04-03T01:44:15;99284.44;;;4.40;100.00
70815;BME280;58428;49.478;10.986;2023-04-03T01:46:44;99286.81;;;4.37;100.00
70815;BME280;58428;49.478;10.986;2023-04-03T01:49:10;99284.69;;;4.24;100.00
70815;BME280;58428;49.478;10.986;2023-04-03T01:51:35;99288.63;;;4.12;100.00
70815;BME280;58428;49.478;10.986;2023-04-03T01:54:01;99281.41;;;4.07;100.00
70815;BME280;58428;49.478;10.986;2023-04-03T01:56:26;99277.41;;;4.10;100.00
70815;BME280;58428;49.478;10.986;2023-04-03T01:58:52;99280.31;;;4.03;100.00
70815;BME280;58428;49.478;10.986;2023-04-03T02:01:17;99278.94;;;3.86;100.00
70815;BME280;58428;49.478;10.986;2023-04-03T02:03:43;99281.31;;;3.78;100.00
70815;BME280;58428;49.478;10.986;2023-04-03T02:06:09;99285.84;;;3.72;100.00
70815;BME280;58428;49.478;10.986;2023-04-03T02:08:34;99289.56;;;3.66;100.00
70815;BME280;58428;49.478;10.986;2023-04-03T02:11:00;99284.72;;;3.64;100.00
70815;BME280;58428;49.478;10.986;2023-04-03T02:13:25;99289.00;;;3.65;100.00
70815;BME280;58428;49.478;10.986;2023-04-03T02:15:51;99287.09;;;3.55;100.00
70815;BME280;58428;49.478;10.986;2023-04-03T02:18:18;99282.78;;;3.49;100.00
70815;BME280;58428;49.478;10.986;2023-04-03T02:20:46;99292.94;;;3.52;100.00
70815;BME280;58428;49.478;10.986;2023-04-03T02:23:15;99291.38;;;3.56;100.00
70815;BME280;58428;49.478;10.986;2023-04-03T02:25:40;99289.16;;;3.43;100.00
70815;BME280;58428;49.478;10.986;2023-04-03T02:28:07;99288.63;;;3.41;100.00
70815;BME280;58428;49.478;10.986;2023-04-03T02:30:33;99289.47;;;3.47;100.00
70815;BME280;58428;49.478;10.986;2023-04-03T02:33:01;99283.28;;;3.41;100.00
70815;BME280;58428;49.478;10.986;2023-04-03T02:35:26;99291.25;;;3.36;100.00
70815;BME280;58428;49.478;10.986;2023-04-03T02:37:51;99292.88;;;3.37;100.00
70815;BME280;58428;49.478;10.986;2023-04-03T02:40:17;99295.50;;;3.28;100.00
70815;BME280;58428;49.478;10.986;2023-04-03T02:42:44;99293.06;;;3.26;100.00
70815;BME280;58428;49.478;10.986;2023-04-03T02:45:10;99292.28;;;3.26;100.00
70815;BME280;58428;49.478;10.986;2023-04-03T02:47:35;99294.41;;;3.24;100.00
70815;BME280;58428;49.478;10.986;2023-04-03T02:50:01;99288.50;;;3.22;100.00
70815;BME280;58428;49.478;10.986;2023-04-03T02:52:26;99295.44;;;3.23;100.00
70815;BME280;58428;49.478;10.986;2023-04-03T02:54:52;99299.44;;;3.20;100.00
70815;BME280;58428;49.478;10.986;2023-04-03T02:57:17;99292.22;;;3.21;100.00
70815;BME280;58428;49.478;10.986;2023-04-03T02:59:44;99294.94;;;3.26;100.00
70815;BME280;58428;49.478;10.986;2023-04-03T03:02:11;99294.41;;;3.24;100.00
70815;BME280;58428;49.478;10.986;2023-04-03T03:04:38;99299.22;;;3.27;100.00
70815;BME280;58428;49.478;10.986;2023-04-03T03:07:05;99295.19;;;3.24;100.00
70815;BME280;58428;49.478;10.986;2023-04-03T03:09:31;99289.06;;;3.24;100.00
70815;BME280;58428;49.478;10.986;2023-04-03T03:14:22;99290.59;;;3.15;100.00
70815;BME280;58428;49.478;10.986;2023-04-03T03:16:49;99285.34;;;2.93;100.00
70815;BME280;58428;49.478;10.986;2023-04-03T03:19:14;99285.81;;;2.86;100.00
70815;BME280;58428;49.478;10.986;2023-04-03T03:21:40;99287.72;;;2.90;100.00
70815;BME280;58428;49.478;10.986;2023-04-03T03:24:06;99283.41;;;2.84;100.00
70815;BME280;58428;49.478;10.986;2023-04-03T03:26:34;99285.81;;;2.81;100.00
70815;BME280;58428;49.478;10.986;2023-04-03T03:29:00;99286.34;;;2.83;100.00
70815;BME280;58428;49.478;10.986;2023-04-03T03:31:25;99293.28;;;2.79;100.00
70815;BME280;58428;49.478;10.986;2023-04-03T03:33:58;99291.88;;;2.76;100.00
70815;BME280;58428;49.478;10.986;2023-04-03T03:36:23;99291.97;;;2.86;100.00
70815;BME280;58428;49.478;10.986;2023-04-03T03:38:49;99286.06;;;2.84;100.00
70815;BME280;58428;49.478;10.986;2023-04-03T03:41:14;99288.28;;;2.92;100.00
70815;BME280;58428;49.478;10.986;2023-04-03T03:43:43;99293.41;;;2.98;100.00
70815;BME280;58428;49.478;10.986;2023-04-03T03:46:32;99284.88;;;3.01;100.00
70815;BME280;58428;49.478;10.986;2023-04-03T03:48:57;99287.84;;;3.05;100.00
70815;BME280;58428;49.478;10.986;2023-04-03T03:51:23;99290.56;;;3.10;100.00
70815;BME280;58428;49.478;10.986;2023-04-03T03:53:49;99292.41;;;3.09;100.00
70815;BME280;58428;49.478;10.986;2023-04-03T03:56:18;99288.69;;;3.10;100.00
70815;BME280;58428;49.478;10.986;2023-04-03T03:58:46;99288.38;;;3.07;100.00
70815;BME280;58428;49.478;10.986;2023-04-03T04:01:12;99284.94;;;3.11;100.00
70815;BME280;58428;49.478;10.986;2023-04-03T04:03:38;99285.53;;;3.18;100.00
70815;BME280;58428;49.478;10.986;2023-04-03T04:06:04;99286.88;;;3.16;100.00
70815;BME280;58428;49.478;10.986;2023-04-03T04:08:31;99297.06;;;3.24;100.00
70815;BME280;58428;49.478;10.986;2023-04-03T04:10:56;99288.75;;;3.20;100.00
70815;BME280;58428;49.478;10.986;2023-04-03T04:13:23;99297.63;;;3.26;100.00
70815;BME280;58428;49.478;10.986;2023-04-03T04:15:48;99288.00;;;3.29;100.00
70815;BME280;58428;49.478;10.986;2023-04-03T04:18:16;99297.38;;;3.32;100.00
70815;BME280;58428;49.478;10.986;2023-04-03T04:20:45;99293.38;;;3.29;100.00
70815;BME280;58428;49.478;10.986;2023-04-03T04:23:14;99293.66;;;3.33;100.00
70815;BME280;58428;49.478;10.986;2023-04-03T04:25:40;99291.25;;;3.36;100.00
70815;BME280;58428;49.478;10.986;2023-04-03T04:28:09;99301.69;;;3.38;100.00
70815;BME280;58428;49.478;10.986;2023-04-03T04:30:34;99299.00;;;3.33;100.00
70815;BME280;58428;49.478;10.986;2023-04-03T04:33:00;99293.66;;;3.38;100.00
70815;BME280;58428;49.478;10.986;2023-04-03T04:35:26;99296.59;;;3.31;100.00
70815;BME280;58428;49.478;10.986;2023-04-03T04:37:51;99297.13;;;3.33;100.00
70815;BME280;58428;49.478;10.986;2023-04-03T04:40:17;99300.84;;;3.32;100.00
70815;BME280;58428;49.478;10.986;2023-04-03T04:42:43;99301.34;;;3.25;100.00
70815;BME280;58428;49.478;10.986;2023-04-03T04:45:11;99297.56;;;3.21;100.00
70815;BME280;58428;49.478;10.986;2023-04-03T04:47:40;99298.59;;;3.10;100.00
70815;BME280;58428;49.478;10.986;2023-04-03T04:50:09;99294.28;;;3.09;100.00
70815;BME280;58428;49.478;10.986;2023-04-03T04:52:35;99295.09;;;3.09;100.00
70815;BME280;58428;49.478;10.986;2023-04-03T04:55:00;99298.25;;;3.01;100.00
70815;BME280;58428;49.478;10.986;2023-04-03T04:57:26;99299.00;;;2.97;100.00
70815;BME280;58428;49.478;10.986;2023-04-03T04:59:52;99307.28;;;2.95;100.00
70815;BME280;58428;49.478;10.986;2023-04-03T05:02:17;99304.06;;;2.93;100.00
70815;BME280;58428;49.478;10.986;2023-04-03T05:04:44;99316.06;;;2.91;100.00
70815;BME280;58428;49.478;10.986;2023-04-03T05:07:10;99320.94;;;2.99;100.00
70815;BME280;58428;49.478;10.986;2023-04-03T05:09:36;99314.81;;;3.03;100.00
70815;BME280;58428;49.478;10.986;2023-04-03T05:12:15;99325.03;;;3.06;100.00
70815;BME280;58428;49.478;10.986;2023-04-03T05:14:44;99325.03;;;3.11;100.00
70815;BME280;58428;49.478;10.986;2023-04-03T05:17:10;99328.19;;;3.03;100.00
70815;BME280;58428;49.478;10.986;2023-04-03T05:19:35;99327.72;;;3.11;100.00
70815;BME280;58428;49.478;10.986;2023-04-03T05:22:01;99325.81;;;3.07;100.00
70815;BME280;58428;49.478;10.986;2023-04-03T05:24:26;99328.50;;;3.07;100.00
70815;BME280;58428;49.478;10.986;2023-04-03T05:26:53;99332.47;;;3.04;100.00
70815;BME280;58428;49.478;10.986;2023-04-03T05:29:19;99337.59;;;3.11;100.00
70815;BME280;58428;49.478;10.986;2023-04-03T05:31:44;99337.91;;;3.14;100.00
70815;BME280;58428;49.478;10.986;2023-04-03T05:34:14;99335.19;;;3.09;100.00
70815;BME280;58428;49.478;10.986;2023-04-03T05:36:39;99339.25;;;3.17;100.00
70815;BME280;58428;49.478;10.986;2023-04-03T05:39:05;99344.09;;;3.20;100.00
70815;BME280;58428;49.478;10.986;2023-04-03T05:41:30;99339.06;;;3.28;100.00
70815;BME280;58428;49.478;10.986;2023-04-03T05:43:58;99344.75;;;3.36;100.00
70815;BME280;58428;49.478;10.986;2023-04-03T05:46:29;99340.53;;;3.45;100.00
70815;BME280;58428;49.478;10.986;2023-04-03T05:49:03;99348.50;;;3.40;100.00
70815;BME280;58428;49.478;10.986;2023-04-03T05:51:36;99349.13;;;3.52;100.00
70815;BME280;58428;49.478;10.986;2023-04-03T05:54:16;99352.09;;;3.56;100.00
70815;BME280;58428;49.478;10.986;2023-04-03T05:56:43;99349.72;;;3.59;100.00
70815;BME280;58428;49.478;10.986;2023-04-03T05:59:12;99357.25;;;3.67;100.00
70815;BME280;58428;49.478;10.986;2023-04-03T06:01:48;99356.75;;;3.70;100.00
70815;BME280;58428;49.478;10.986;2023-04-03T06:04:16;99353.22;;;3.65;100.00
70815;BME280;58428;49.478;10.986;2023-04-03T06:06:44;99354.63;;;3.77;100.00
70815;BME280;58428;49.478;10.986;2023-04-03T06:09:12;99367.50;;;3.80;100.00
70815;BME280;58428;49.478;10.986;2023-04-03T06:11:38;99356.75;;;3.75;100.00
70815;BME280;58428;49.478;10.986;2023-04-03T06:14:04;99358.38;;;3.76;100.00
70815;BME280;58428;49.478;10.986;2023-04-03T06:19:06;99362.69;;;3.82;100.00
70815;BME280;58428;49.478;10.986;2023-04-03T06:21:35;99358.22;;;3.97;100.00
70815;BME280;58428;49.478;10.986;2023-04-03T06:24:17;99369.84;;;4.22;100.00
70815;BME280;58428;49.478;10.986;2023-04-03T06:26:43;99361.31;;;4.40;100.00
70815;BME280;58428;49.478;10.986;2023-04-03T06:29:09;99364.03;;;4.50;100.00
70815;BME280;58428;49.478;10.986;2023-04-03T06:31:39;99375.59;;;4.65;100.00
70815;BME280;58428;49.478;10.986;2023-04-03T06:34:05;99374.78;;;4.55;100.00
70815;BME280;58428;49.478;10.986;2023-04-03T06:36:35;99379.31;;;4.64;100.00
70815;BME280;58428;49.478;10.986;2023-04-03T06:39:00;99375.34;;;4.76;100.00
70815;BME280;58428;49.478;10.986;2023-04-03T06:41:43;99369.44;;;4.89;100.00
70815;BME280;58428;49.478;10.986;2023-04-03T06:44:10;99375.34;;;4.91;100.00
70815;BME280;58428;49.478;10.986;2023-04-03T06:46:37;99378.84;;;5.07;100.00
70815;BME280;58428;49.478;10.986;2023-04-03T06:49:06;99377.00;;;5.17;100.00
70815;BME280;58428;49.478;10.986;2023-04-03T06:51:35;99377.25;;;5.01;100.00
70815;BME280;58428;49.478;10.986;2023-04-03T06:54:01;99379.94;;;5.01;100.00
70815;BME280;58428;49.478;10.986;2023-04-03T06:56:28;99375.91;;;5.03;100.00
70815;BME280;58428;49.478;10.986;2023-04-03T06:59:00;99376.97;;;5.02;100.00
70815;BME280;58428;49.478;10.986;2023-04-03T07:01:27;99391.47;;;5.06;100.00
70815;BME280;58428;49.478;10.986;2023-04-03T07:03:55;99385.56;;;5.04;100.00
70815;BME280;58428;49.478;10.986;2023-04-03T07:06:23;99393.63;;;5.19;100.00
70815;BME280;58428;49.478;10.986;2023-04-03T07:08:52;99392.00;;;5.43;100.00
70815;BME280;58428;49.478;10.986;2023-04-03T07:11:18;99395.22;;;5.49;100.00
70815;BME280;58428;49.478;10.986;2023-04-03T07:13:45;99401.13;;;5.56;100.00
70815;BME280;58428;49.478;10.986;2023-04-03T07:16:11;99401.91;;;5.67;100.00
70815;BME280;58428;49.478;10.986;2023-04-03T07:18:37;99404.34;;;5.48;100.00
70815;BME280;58428;49.478;10.986;2023-04-03T07:21:03;99401.41;;;5.50;100.00
70815;BME280;58428;49.478;10.986;2023-04-03T07:23:34;99405.69;;;5.56;100.00
70815;BME280;58428;49.478;10.986;2023-04-03T07:25:59;99408.34;;;5.71;100.00
70815;BME280;58428;49.478;10.986;2023-04-03T07:28:25;99408.91;;;5.68;100.00
70815;BME280;58428;49.478;10.986;2023-04-03T07:30:53;99422.31;;;5.68;100.00
70815;BME280;58428;49.478;10.986;2023-04-03T07:33:25;99411.59;;;5.73;100.00
70815;BME280;58428;49.478;10.986;2023-04-03T07:35:53;99415.84;;;5.93;100.00
70815;BME280;58428;49.478;10.986;2023-04-03T07:38:21;99417.97;;;6.11;100.00
70815;BME280;58428;49.478;10.986;2023-04-03T07:40:48;99411.00;;;6.05;100.00
70815;BME280;58428;49.478;10.986;2023-04-03T07:43:18;99416.34;;;6.20;100.00
70815;BME280;58428;49.478;10.986;2023-04-03T07:45:47;99418.22;;;6.15;100.00
70815;BME280;58428;49.478;10.986;2023-04-03T07:48:36;99417.72;;;6.03;100.00
70815;BME280;58428;49.478;10.986;2023-04-03T07:51:20;99425.78;;;5.98;100.00
70815;BME280;58428;49.478;10.986;2023-04-03T07:53:49;99423.66;;;5.95;100.00
70815;BME280;58428;49.478;10.986;2023-04-03T07:56:16;99415.59;;;5.90;100.00
70815;BME280;58428;49.478;10.986;2023-04-03T07:58:42;99427.38;;;6.04;100.00
70815;BME280;58428;49.478;10.986;2023-04-03T08:01:08;99424.19;;;5.92;100.00
70815;BME280;58428;49.478;10.986;2023-04-03T08:03:33;99422.56;;;5.96;100.00
70815;BME280;58428;49.478;10.986;2023-04-03T08:12:26;99414.84;;;6.52;100.00
70815;BME280;58428;49.478;10.986;2023-04-03T08:18:16;99421.94;;;6.91;100.00
70815;BME280;58428;49.478;10.986;2023-04-03T08:23:47;99427.78;;;7.03;100.00
70815;BME280;58428;49.478;10.986;2023-04-03T08:26:23;99429.16;;;6.96;100.00
70815;BME280;58428;49.478;10.986;2023-04-03T08:28:52;99431.06;;;6.90;100.00
70815;BME280;58428;49.478;10.986;2023-04-03T08:31:34;99429.09;;;7.00;100.00
70815;BME280;58428;49.478;10.986;2023-04-03T08:34:20;99429.88;;;7.11;100.00
70815;BME280;58428;49.478;10.986;2023-04-03T08:36:49;99435.00;;;7.02;100.00
70815;BME280;58428;49.478;10.986;2023-04-03T08:39:15;99434.22;;;7.02;100.00
70815;BME280;58428;49.478;10.986;2023-04-03T08:41:51;99435.19;;;7.21;100.00
70815;BME280;58428;49.478;10.986;2023-04-03T08:50:30;99428.78;;;7.45;100.00
70815;BME280;58428;49.478;10.986;2023-04-03T08:52:59;99415.84;;;7.47;100.00
70815;BME280;58428;49.478;10.986;2023-04-03T08:55:51;99419.97;;;7.39;100.00
70815;BME280;58428;49.478;10.986;2023-04-03T09:04:03;99432.63;;;6.96;100.00
70815;BME280;58428;49.478;10.986;2023-04-03T09:06:37;99430.06;;;6.71;100.00
70815;BME280;58428;49.478;10.986;2023-04-03T09:09:31;99435.03;;;6.50;100.00
70815;BME280;58428;49.478;10.986;2023-04-03T09:18:06;99439.50;;;6.69;100.00
70815;BME280;58428;49.478;10.986;2023-04-03T09:23:59;99445.28;;;6.96;100.00
70815;BME280;58428;49.478;10.986;2023-04-03T09:27:07;99444.13;;;7.11;100.00
70815;BME280;58428;49.478;10.986;2023-04-03T09:29:43;99441.28;;;7.31;100.00
70815;BME280;58428;49.478;10.986;2023-04-03T09:32:33;99442.50;;;7.48;100.00
70815;BME280;58428;49.478;10.986;2023-04-03T09:35:10;99444.28;;;7.63;100.00
70815;BME280;58428;49.478;10.986;2023-04-03T09:40:49;99444.28;;;7.63;100.00
70815;BME280;58428;49.478;10.986;2023-04-03T09:44:17;99436.25;;;7.86;100.00
70815;BME280;58428;49.478;10.986;2023-04-03T09:46:40;99434.69;;;8.08;100.00
70815;BME280;58428;49.478;10.986;2023-04-03T09:52:41;99426.00;;;8.39;100.00
70815;BME280;58428;49.478;10.986;2023-04-03T09:55:18;99434.09;;;8.39;100.00
70815;BME280;58428;49.478;10.986;2023-04-03T10:01:01;99423.03;;;8.17;100.00
70815;BME280;58428;49.478;10.986;2023-04-03T10:03:35;99417.59;;;7.94;100.00
70815;BME280;58428;49.478;10.986;2023-04-03T10:06:23;99422.78;;;7.86;100.00
70815;BME280;58428;49.478;10.986;2023-04-03T10:09:28;99426.75;;;7.65;100.00
70815;BME280;58428;49.478;10.986;2023-04-03T10:14:59;99419.88;;;8.34;98.10
70815;BME280;58428;49.478;10.986;2023-04-03T10:20:51;99419.06;;;8.56;93.31
70815;BME280;58428;49.478;10.986;2023-04-03T10:24:09;99422.69;;;8.47;92.94
70815;BME280;58428;49.478;10.986;2023-04-03T10:26:58;99420.28;;;8.87;94.95
70815;BME280;58428;49.478;10.986;2023-04-03T10:42:38;99410.00;;;9.07;89.37
70815;BME280;58428;49.478;10.986;2023-04-03T10:45:21;99407.38;;;9.02;94.05
70815;BME280;58428;49.478;10.986;2023-04-03T10:51:23;99405.81;;;8.60;90.69
70815;BME280;58428;49.478;10.986;2023-04-03T10:54:11;99403.88;;;8.42;88.97
70815;BME280;58428;49.478;10.986;2023-04-03T10:56:56;99401.25;;;8.55;89.51
70815;BME280;58428;49.478;10.986;2023-04-03T11:05:45;99386.88;;;8.42;91.58
70815;BME280;58428;49.478;10.986;2023-04-03T11:11:36;99387.50;;;8.10;86.03
70815;BME280;58428;49.478;10.986;2023-04-03T11:14:31;99373.78;;;8.07;86.10
70815;BME280;58428;49.478;10.986;2023-04-03T11:17:11;99375.13;;;8.33;88.29
70815;BME280;58428;49.478;10.986;2023-04-03T11:29:03;99368.28;;;8.63;82.62
70815;BME280;58428;49.478;10.986;2023-04-03T11:32:02;99372.22;;;8.47;84.27
70815;BME280;58428;49.478;10.986;2023-04-03T11:34:50;99371.88;;;8.12;83.74
70815;BME280;58428;49.478;10.986;2023-04-03T11:37:53;99369.63;;;7.91;84.85
70815;BME280;58428;49.478;10.986;2023-04-03T11:40:40;99366.19;;;8.14;85.66
70815;BME280;58428;49.478;10.986;2023-04-03T11:44:46;99365.69;;;8.53;85.34
70815;BME280;58428;49.478;10.986;2023-04-03T11:47:04;99367.63;;;8.71;84.07
70815;BME280;58428;49.478;10.986;2023-04-03T11:50:08;99370.88;;;8.50;82.44
70815;BME280;58428;49.478;10.986;2023-04-03T11:53:25;99369.53;;;8.47;83.22
70815;BME280;58428;49.478;10.986;2023-04-03T12:02:45;99361.47;;;8.24;81.22
70815;BME280;58428;49.478;10.986;2023-04-03T12:08:56;99347.78;;;8.62;77.60
70815;BME280;58428;49.478;10.986;2023-04-03T12:11:41;99347.56;;;8.77;75.01
70815;BME280;58428;49.478;10.986;2023-04-03T12:14:41;99337.25;;;9.47;76.21
70815;BME280;58428;49.478;10.986;2023-04-03T12:17:25;99335.13;;;9.89;77.52
70815;BME280;58428;49.478;10.986;2023-04-03T12:36:22;99316.13;;;9.36;78.96
70815;BME280;58428;49.478;10.986;2023-04-03T12:51:44;99308.53;;;9.38;77.47
70815;BME280;58428;49.478;10.986;2023-04-03T12:54:18;99305.41;;;9.76;75.61
70815;BME280;58428;49.478;10.986;2023-04-03T12:57:08;99291.81;;;9.94;74.78
70815;BME280;58428;49.478;10.986;2023-04-03T13:00:29;99295.72;;;10.01;67.54
70815;BME280;58428;49.478;10.986;2023-04-03T13:03:22;99298.13;;;10.16;69.56
70815;BME280;58428;49.478;10.986;2023-04-03T13:06:00;99301.91;;;10.15;71.86
70815;BME280;58428;49.478;10.986;2023-04-03T13:08:37;99294.09;;;10.14;66.09
70815;BME280;58428;49.478;10.986;2023-04-03T13:11:35;99297.19;;;10.34;64.73
70815;BME280;58428;49.478;10.986;2023-04-03T13:14:26;99291.88;;;10.29;61.86
70815;BME280;58428;49.478;10.986;2023-04-03T13:17:18;99297.00;;;10.17;64.58
70815;BME280;58428;49.478;10.986;2023-04-03T13:20:11;99306.28;;;9.85;66.75
70815;BME280;58428;49.478;10.986;2023-04-03T13:22:42;99299.47;;;9.29;66.67
70815;BME280;58428;49.478;10.986;2023-04-03T13:25:35;99299.41;;;9.02;71.90
70815;BME280;58428;49.478;10.986;2023-04-03T13:28:15;99294.25;;;8.87;72.22
70815;BME280;58428;49.478;10.986;2023-04-03T13:31:27;99282.78;;;8.95;73.18
70815;BME280;58428;49.478;10.986;2023-04-03T13:34:13;99285.97;;;9.16;74.47
70815;BME280;58428;49.478;10.986;2023-04-03T13:37:01;99283.16;;;9.20;73.40
70815;BME280;58428;49.478;10.986;2023-04-03T13:39:56;99280.00;;;9.32;73.63
70815;BME280;58428;49.478;10.986;2023-04-03T13:45:30;99284.44;;;8.60;73.57
70815;BME280;58428;49.478;10.986;2023-04-03T13:48:18;99282.22;;;8.80;71.01
70815;BME280;58428;49.478;10.986;2023-04-03T13:51:00;99280.97;;;8.91;72.15
70815;BME280;58428;49.478;10.986;2023-04-03T13:53:48;99280.19;;;9.22;74.22
70815;BME280;58428;49.478;10.986;2023-04-03T13:56:24;99277.38;;;9.72;75.10
70815;BME280;58428;49.478;10.986;2023-04-03T13:59:21;99279.44;;;9.75;71.17
70815;BME280;58428;49.478;10.986;2023-04-03T14:04:31;99277.13;;;9.42;68.77
70815;BME280;58428;49.478;10.986;2023-04-03T14:07:07;99284.75;;;9.53;72.46
70815;BME280;58428;49.478;10.986;2023-04-03T14:09:33;99291.19;;;9.25;68.39
70815;BME280;58428;49.478;10.986;2023-04-03T14:12:31;99275.81;;;9.39;72.16
70815;BME280;58428;49.478;10.986;2023-04-03T14:15:06;99275.22;;;9.55;74.43
70815;BME280;58428;49.478;10.986;2023-04-03T14:17:53;99274.66;;;9.72;74.93
70815;BME280;58428;49.478;10.986;2023-04-03T14:20:25;99265.84;;;9.80;73.52
70815;BME280;58428;49.478;10.986;2023-04-03T14:22:55;99263.25;;;9.88;73.96
70815;BME280;58428;49.478;10.986;2023-04-03T14:25:32;99265.94;;;9.88;71.28
70815;BME280;58428;49.478;10.986;2023-04-03T14:28:21;99274.47;;;9.68;65.78
70815;BME280;58428;49.478;10.986;2023-04-03T14:30:51;99269.84;;;9.55;67.94
70815;BME280;58428;49.478;10.986;2023-04-03T14:33:26;99271.94;;;9.58;66.94
70815;BME280;58428;49.478;10.986;2023-04-03T14:36:23;99270.03;;;9.59;66.44
70815;BME280;58428;49.478;10.986;2023-04-03T14:38:51;99269.03;;;9.55;69.10
70815;BME280;58428;49.478;10.986;2023-04-03T14:41:20;99252.84;;;9.68;73.49
70815;BME280;58428;49.478;10.986;2023-04-03T14:43:48;99264.72;;;9.67;69.19
70815;BME280;58428;49.478;10.986;2023-04-03T14:46:34;99269.06;;;9.68;69.17
70815;BME280;58428;49.478;10.986;2023-04-03T14:49:27;99257.56;;;10.03;70.64
70815;BME280;58428;49.478;10.986;2023-04-03T14:51:57;99259.25;;;9.86;69.08
70815;BME280;58428;49.478;10.986;2023-04-03T14:54:29;99256.25;;;9.87;69.05
70815;BME280;58428;49.478;10.986;2023-04-03T14:56:56;99260.03;;;9.59;66.00
70815;BME280;58428;49.478;10.986;2023-04-03T14:59:28;99264.13;;;9.57;70.15
70815;BME280;58428;49.478;10.986;2023-04-03T15:01:56;99246.16;;;9.66;68.55
70815;BME280;58428;49.478;10.986;2023-04-03T15:04:22;99251.56;;;9.92;73.30
70815;BME280;58428;49.478;10.986;2023-04-03T15:06:56;99256.75;;;9.76;68.49
70815;BME280;58428;49.478;10.986;2023-04-03T15:09:31;99258.31;;;9.50;67.94
70815;BME280;58428;49.478;10.986;2023-04-03T15:12:07;99263.72;;;9.05;69.54
70815;BME280;58428;49.478;10.986;2023-04-03T15:14:36;99256.00;;;8.99;71.34
70815;BME280;58428;49.478;10.986;2023-04-03T15:17:08;99254.75;;;9.10;69.50
70815;BME280;58428;49.478;10.986;2023-04-03T15:19:43;99251.34;;;9.04;69.89
70815;BME280;58428;49.478;10.986;2023-04-03T15:22:25;99257.19;;;8.75;69.61
70815;BME280;58428;49.478;10.986;2023-04-03T15:28:28;99261.47;;;8.62;71.82
70815;BME280;58428;49.478;10.986;2023-04-03T15:30:55;99257.22;;;8.56;72.67
70815;BME280;58428;49.478;10.986;2023-04-03T15:33:21;99261.59;;;8.52;73.67
70815;BME280;58428;49.478;10.986;2023-04-03T15:35:48;99258.81;;;8.57;74.19
70815;BME280;58428;49.478;10.986;2023-04-03T15:38:14;99268.91;;;8.52;74.16
70815;BME280;58428;49.478;10.986;2023-04-03T15:40:40;99265.75;;;8.45;71.10
70815;BME280;58428;49.478;10.986;2023-04-03T15:43:16;99266.03;;;8.43;74.10
70815;BME280;58428;49.478;10.986;2023-04-03T15:45:47;99259.72;;;8.53;74.81
70815;BME280;58428;49.478;10.986;2023-04-03T15:48:20;99269.13;;;8.37;73.28
70815;BME280;58428;49.478;10.986;2023-04-03T15:50:51;99269.03;;;8.24;73.94